sensor_id;sensor_type;location;lat;lon;timestamp;pressure;altitude;pressure_sealevel;temperature;humidity
57948;BME280;43754;56.992;24.292;2022-09-13T00:02:01;101381.84;;;9.77;100.00
57948;BME280;43754;56.992;24.292;2022-09-13T00:04:33;101376.16;;;9.72;100.00
57948;BME280;43754;56.992;24.292;2022-09-13T00:07:05;101379.13;;;9.69;100.00
57948;BME280;43754;56.992;24.292;2022-09-13T00:09:39;101373.78;;;9.69;100.00
57948;BME280;43754;56.992;24.292;2022-09-13T00:12:11;101376.16;;;9.72;100.00
57948;BME280;43754;56.992;24.292;2022-09-13T00:14:43;101371.47;;;9.74;100.00
57948;BME280;43754;56.992;24.292;2022-09-13T00:17:15;101370.81;;;9.72;100.00
57948;BME280;43754;56.992;24.292;2022-09-13T00:19:47;101367.78;;;9.75;100.00
57948;BME280;43754;56.992;24.292;2022-09-13T00:22:18;101365.97;;;9.76;100.00
57948;BME280;43754;56.992;24.292;2022-09-13T00:24:52;101355.78;;;9.79;100.00
57948;BME280;43754;56.992;24.292;2022-09-13T00:27:24;101356.94;;;9.77;100.00
57948;BME280;43754;56.992;24.292;2022-09-13T00:29:56;101362.81;;;9.80;100.00
57948;BME280;43754;56.992;24.292;2022-09-13T00:32:28;101361.78;;;9.81;100.00
57948;BME280;43754;56.992;24.292;2022-09-13T00:35:00;101364.78;;;9.78;100.00
57948;BME280;43754;56.992;24.292;2022-09-13T00:37:32;101370.66;;;9.82;100.00
57948;BME280;43754;56.992;24.292;2022-09-13T00:40:07;101364.47;;;9.81;100.00
57948;BME280;43754;56.992;24.292;2022-09-13T00:42:39;101367.31;;;9.80;100.00
57948;BME280;43754;56.992;24.292;2022-09-13T00:45:14;101363.66;;;9.81;100.00
57948;BME280;43754;56.992;24.292;2022-09-13T00:47:51;101364.31;;;9.83;100.00
57948;BME280;43754;56.992;24.292;2022-09-13T00:50:27;101366.66;;;9.86;100.00
57948;BME280;43754;56.992;24.292;2022-09-13T00:53:05;101359.47;;;9.86;100.00
57948;BME280;43754;56.992;24.292;2022-09-13T00:55:42;101357.78;;;9.85;100.00
57948;BME280;43754;56.992;24.292;2022-09-13T00:58:17;101367.50;;;9.86;100.00
57948;BME280;43754;56.992;24.292;2022-09-13T01:00:52;101371.72;;;9.89;100.00
57948;BME280;43754;56.992;24.292;2022-09-13T01:03:26;101375.06;;;9.91;100.00
57948;BME280;43754;56.992;24.292;2022-09-13T01:06:04;101370.56;;;9.91;100.00
57948;BME280;43754;56.992;24.292;2022-09-13T01:08:40;101374.22;;;9.90;100.00
57948;BME280;43754;56.992;24.292;2022-09-13T01:11:18;101372.56;;;9.89;100.00
57948;BME280;43754;56.992;24.292;2022-09-13T01:13:53;101373.22;;;9.91;100.00
57948;BME280;43754;56.992;24.292;2022-09-13T01:16:25;101370.41;;;9.93;100.00
57948;BME280;43754;56.992;24.292;2022-09-13T01:18:57;101368.38;;;9.95;100.00
57948;BME280;43754;56.992;24.292;2022-09-13T01:24:54;101367.53;;;9.94;100.00
57948;BME280;43754;56.992;24.292;2022-09-13T01:27:40;101356.69;;;9.96;100.00
57948;BME280;43754;56.992;24.292;2022-09-13T01:30:18;101357.69;;;9.95;100.00
57948;BME280;43754;56.992;24.292;2022-09-13T01:39:04;101353.97;;;9.88;100.00
57948;BME280;43754;56.992;24.292;2022-09-13T01:41:58;101360.16;;;9.88;100.00
57948;BME280;43754;56.992;24.292;2022-09-13T01:44:45;101353.13;;;9.87;100.00
57948;BME280;43754;56.992;24.292;2022-09-13T01:47:24;101351.44;;;9.86;100.00
57948;BME280;43754;56.992;24.292;2022-09-13T01:50:07;101348.94;;;9.85;100.00
57948;BME280;43754;56.992;24.292;2022-09-13T01:52:49;101354.44;;;9.83;100.00
57948;BME280;43754;56.992;24.292;2022-09-13T01:55:28;101346.78;;;9.88;100.00
57948;BME280;43754;56.992;24.292;2022-09-13T01:58:10;101337.44;;;9.92;100.00
57948;BME280;43754;56.992;24.292;2022-09-13T02:00:55;101345.97;;;9.96;100.00
57948;BME280;43754;56.992;24.292;2022-09-13T02:03:38;101343.81;;;9.99;100.00
57948;BME280;43754;56.992;24.292;2022-09-13T02:06:17;101342.31;;;9.97;100.00
57948;BME280;43754;56.992;24.292;2022-09-13T02:08:53;101335.25;;;9.96;100.00
57948;BME280;43754;56.992;24.292;2022-09-13T02:11:26;101326.53;;;9.94;100.00
57948;BME280;43754;56.992;24.292;2022-09-13T02:14:03;101331.75;;;9.95;100.00
57948;BME280;43754;56.992;24.292;2022-09-13T02:16:39;101338.94;;;9.95;100.00
57948;BME280;43754;56.992;24.292;2022-09-13T02:19:16;101331.22;;;9.92;100.00
57948;BME280;43754;56.992;24.292;2022-09-13T02:21:53;101336.44;;;9.93;100.00
57948;BME280;43754;56.992;24.292;2022-09-13T02:24:29;101334.56;;;9.94;100.00
57948;BME280;43754;56.992;24.292;2022-09-13T02:27:07;101324.03;;;9.92;100.00
57948;BME280;43754;56.992;24.292;2022-09-13T02:29:44;101332.72;;;9.94;100.00
57948;BME280;43754;56.992;24.292;2022-09-13T02:32:21;101335.09;;;9.97;100.00
57948;BME280;43754;56.992;24.292;2022-09-13T02:35:00;101334.94;;;9.99;100.00
57948;BME280;43754;56.992;24.292;2022-09-13T02:37:39;101326.91;;;9.99;100.00
57948;BME280;43754;56.992;24.292;2022-09-13T02:40:16;101323.72;;;9.95;100.00
57948;BME280;43754;56.992;24.292;2022-09-13T02:42:57;101328.72;;;9.98;100.00
57948;BME280;43754;56.992;24.292;2022-09-13T02:45:37;101321.72;;;9.97;100.00
57948;BME280;43754;56.992;24.292;2022-09-13T02:48:17;101332.59;;;9.96;100.00
57948;BME280;43754;56.992;24.292;2022-09-13T02:50:59;101323.19;;;9.92;100.00
57948;BME280;43754;56.992;24.292;2022-09-13T02:53:38;101317.00;;;9.91;100.00
57948;BME280;43754;56.992;24.292;2022-09-13T02:56:19;101314.31;;;9.91;100.00
57948;BME280;43754;56.992;24.292;2022-09-13T02:58:57;101314.31;;;9.91;100.00
57948;BME280;43754;56.992;24.292;2022-09-13T03:01:33;101314.31;;;9.91;100.00
57948;BME280;43754;56.992;24.292;2022-09-13T03:04:06;101307.13;;;9.92;100.00
57948;BME280;43754;56.992;24.292;2022-09-13T03:06:40;101310.28;;;9.87;100.00
57948;BME280;43754;56.992;24.292;2022-09-13T03:09:13;101305.09;;;9.86;100.00
57948;BME280;43754;56.992;24.292;2022-09-13T03:12:19;101310.63;;;9.84;100.00
57948;BME280;43754;56.992;24.292;2022-09-13T03:14:55;101302.59;;;9.84;100.00
57948;BME280;43754;56.992;24.292;2022-09-13T03:17:44;101306.59;;;9.80;100.00
57948;BME280;43754;56.992;24.292;2022-09-13T03:20:23;101305.25;;;9.84;100.00
57948;BME280;43754;56.992;24.292;2022-09-13T03:26:14;101295.22;;;9.86;100.00
57948;BME280;43754;56.992;24.292;2022-09-13T03:28:57;101300.56;;;9.86;100.00
57948;BME280;43754;56.992;24.292;2022-09-13T03:31:39;101295.91;;;9.88;100.00
57948;BME280;43754;56.992;24.292;2022-09-13T03:34:20;101294.56;;;9.84;100.00
57948;BME280;43754;56.992;24.292;2022-09-13T03:37:01;101293.19;;;9.80;100.00
57948;BME280;43754;56.992;24.292;2022-09-13T03:39:40;101287.84;;;9.80;100.00
57948;BME280;43754;56.992;24.292;2022-09-13T03:42:17;101293.19;;;9.80;100.00
57948;BME280;43754;56.992;24.292;2022-09-13T03:44:54;101285.81;;;9.82;100.00
57948;BME280;43754;56.992;24.292;2022-09-13T03:47:30;101280.31;;;9.84;100.00
57948;BME280;43754;56.992;24.292;2022-09-13T03:50:04;101286.53;;;9.84;100.00
57948;BME280;43754;56.992;24.292;2022-09-13T03:52:38;101286.34;;;9.86;100.00
57948;BME280;43754;56.992;24.292;2022-09-13T03:55:19;101281.81;;;9.78;100.00
57948;BME280;43754;56.992;24.292;2022-09-13T03:57:52;101286.50;;;9.76;100.00
57948;BME280;43754;56.992;24.292;2022-09-13T04:00:24;101278.78;;;9.81;100.00
57948;BME280;43754;56.992;24.292;2022-09-13T04:02:56;101281.81;;;9.86;100.00
57948;BME280;43754;56.992;24.292;2022-09-13T04:05:28;101280.34;;;9.92;100.00
57948;BME280;43754;56.992;24.292;2022-09-13T04:08:00;101273.81;;;9.94;100.00
57948;BME280;43754;56.992;24.292;2022-09-13T04:10:35;101275.84;;;9.92;100.00
57948;BME280;43754;56.992;24.292;2022-09-13T04:13:07;101275.50;;;9.95;100.00
57948;BME280;43754;56.992;24.292;2022-09-13T04:15:39;101271.66;;;9.98;100.00
57948;BME280;43754;56.992;24.292;2022-09-13T04:18:11;101268.81;;;9.99;100.00
57948;BME280;43754;56.992;24.292;2022-09-13T04:20:43;101268.97;;;9.98;100.00
57948;BME280;43754;56.992;24.292;2022-09-13T04:23:15;101266.16;;;9.99;100.00
57948;BME280;43754;56.992;24.292;2022-09-13T04:25:49;101258.63;;;10.03;100.00
57948;BME280;43754;56.992;24.292;2022-09-13T04:28:24;101262.63;;;10.07;100.00
57948;BME280;43754;56.992;24.292;2022-09-13T04:30:56;101265.31;;;10.07;100.00
57948;BME280;43754;56.992;24.292;2022-09-13T04:33:28;101266.00;;;10.09;100.00
57948;BME280;43754;56.992;24.292;2022-09-13T04:36:02;101257.78;;;10.10;100.00
57948;BME280;43754;56.992;24.292;2022-09-13T04:38:34;101249.59;;;10.12;100.00
57948;BME280;43754;56.992;24.292;2022-09-13T04:41:09;101248.59;;;10.13;100.00
57948;BME280;43754;56.992;24.292;2022-09-13T04:43:41;101253.78;;;10.14;100.00
57948;BME280;43754;56.992;24.292;2022-09-13T04:46:13;101258.88;;;10.18;100.00
57948;BME280;43754;56.992;24.292;2022-09-13T04:48:47;101252.66;;;10.17;100.00
57948;BME280;43754;56.992;24.292;2022-09-13T04:51:20;101253.50;;;10.18;100.00
57948;BME280;43754;56.992;24.292;2022-09-13T04:53:53;101247.31;;;10.17;100.00
57948;BME280;43754;56.992;24.292;2022-09-13T04:56:27;101253.78;;;10.14;100.00
57948;BME280;43754;56.992;24.292;2022-09-13T04:58:59;101249.75;;;10.10;100.00
57948;BME280;43754;56.992;24.292;2022-09-13T05:01:31;101255.09;;;10.10;100.00
57948;BME280;43754;56.992;24.292;2022-09-13T05:04:05;101258.63;;;10.11;100.00
57948;BME280;43754;56.992;24.292;2022-09-13T05:06:37;101254.44;;;10.08;100.00
57948;BME280;43754;56.992;24.292;2022-09-13T05:09:11;101247.25;;;10.09;100.00
57948;BME280;43754;56.992;24.292;2022-09-13T05:11:45;101241.72;;;10.10;100.00
57948;BME280;43754;56.992;24.292;2022-09-13T05:14:17;101240.06;;;10.09;100.00
57948;BME280;43754;56.992;24.292;2022-09-13T05:16:49;101236.22;;;10.12;100.00
57948;BME280;43754;56.992;24.292;2022-09-13T05:19:21;101234.72;;;10.09;100.00
57948;BME280;43754;56.992;24.292;2022-09-13T05:21:53;101231.69;;;10.12;100.00
57948;BME280;43754;56.992;24.292;2022-09-13T05:24:25;101227.56;;;10.18;100.00
57948;BME280;43754;56.992;24.292;2022-09-13T05:26:58;101228.06;;;10.22;100.00
57948;BME280;43754;56.992;24.292;2022-09-13T05:29:30;101228.91;;;10.22;100.00
57948;BME280;43754;56.992;24.292;2022-09-13T05:32:03;101219.03;;;10.23;100.00
57948;BME280;43754;56.992;24.292;2022-09-13T05:34:35;101222.38;;;10.25;100.00
57948;BME280;43754;56.992;24.292;2022-09-13T05:37:07;101221.03;;;10.29;100.00
57948;BME280;43754;56.992;24.292;2022-09-13T05:39:39;101215.84;;;10.35;100.00
57948;BME280;43754;56.992;24.292;2022-09-13T05:42:32;101211.50;;;10.34;100.00
57948;BME280;43754;56.992;24.292;2022-09-13T05:45:05;101207.97;;;10.34;100.00
57948;BME280;43754;56.992;24.292;2022-09-13T05:47:37;101210.16;;;10.38;100.00
57948;BME280;43754;56.992;24.292;2022-09-13T05:50:10;101216.16;;;10.40;100.00
57948;BME280;43754;56.992;24.292;2022-09-13T05:53:02;101210.66;;;10.50;100.00
57948;BME280;43754;56.992;24.292;2022-09-13T05:55:34;101210.00;;;10.56;100.00
57948;BME280;43754;56.992;24.292;2022-09-13T05:58:07;101209.16;;;10.64;100.00
57948;BME280;43754;56.992;24.292;2022-09-13T06:00:39;101215.16;;;10.74;100.00
57948;BME280;43754;56.992;24.292;2022-09-13T06:03:11;101213.97;;;10.84;100.00
57948;BME280;43754;56.992;24.292;2022-09-13T06:05:43;101209.94;;;10.96;100.00
57948;BME280;43754;56.992;24.292;2022-09-13T06:08:15;101199.53;;;11.01;100.00
57948;BME280;43754;56.992;24.292;2022-09-13T06:10:53;101208.59;;;11.00;100.00
57948;BME280;43754;56.992;24.292;2022-09-13T06:13:28;101204.19;;;11.07;100.00
57948;BME280;43754;56.992;24.292;2022-09-13T06:16:02;101207.38;;;11.11;100.00
57948;BME280;43754;56.992;24.292;2022-09-13T06:18:35;101202.16;;;11.18;100.00
57948;BME280;43754;56.992;24.292;2022-09-13T06:21:09;101207.31;;;11.27;100.00
57948;BME280;43754;56.992;24.292;2022-09-13T06:23:41;101204.31;;;11.30;100.00
57948;BME280;43754;56.992;24.292;2022-09-13T06:26:16;101209.31;;;11.33;100.00
57948;BME280;43754;56.992;24.292;2022-09-13T06:28:51;101208.00;;;11.29;100.00
57948;BME280;43754;56.992;24.292;2022-09-13T06:31:24;101201.13;;;11.27;100.00
57948;BME280;43754;56.992;24.292;2022-09-13T06:33:58;101197.75;;;11.33;100.00
57948;BME280;43754;56.992;24.292;2022-09-13T06:36:30;101194.06;;;11.34;100.00
57948;BME280;43754;56.992;24.292;2022-09-13T06:39:03;101191.69;;;11.39;100.00
57948;BME280;43754;56.992;24.292;2022-09-13T06:41:37;101197.06;;;11.39;100.00
57948;BME280;43754;56.992;24.292;2022-09-13T06:44:10;101191.69;;;11.39;100.00
57948;BME280;43754;56.992;24.292;2022-09-13T06:46:43;101187.78;;;11.49;100.00
57948;BME280;43754;56.992;24.292;2022-09-13T06:49:15;101184.88;;;11.59;100.00
57948;BME280;43754;56.992;24.292;2022-09-13T06:51:47;101174.47;;;11.64;100.00
57948;BME280;43754;56.992;24.292;2022-09-13T06:54:19;101173.19;;;11.83;100.00
57948;BME280;43754;56.992;24.292;2022-09-13T06:56:51;101172.97;;;11.92;100.00
57948;BME280;43754;56.992;24.292;2022-09-13T06:59:24;101169.22;;;12.02;100.00
57948;BME280;43754;56.992;24.292;2022-09-13T07:01:56;101165.94;;;12.14;100.00
57948;BME280;43754;56.992;24.292;2022-09-13T07:04:28;101169.09;;;12.18;100.00
57948;BME280;43754;56.992;24.292;2022-09-13T07:07:02;101158.66;;;12.23;100.00
57948;BME280;43754;56.992;24.292;2022-09-13T07:09:34;101162.75;;;12.33;100.00
57948;BME280;43754;56.992;24.292;2022-09-13T07:12:06;101152.28;;;12.38;100.00
57948;BME280;43754;56.992;24.292;2022-09-13T07:14:39;101162.31;;;12.44;100.00
57948;BME280;43754;56.992;24.292;2022-09-13T07:17:11;101160.13;;;12.48;100.00
57948;BME280;43754;56.992;24.292;2022-09-13T07:19:43;101160.56;;;12.52;99.98
57948;BME280;43754;56.992;24.292;2022-09-13T07:22:15;101160.66;;;12.58;100.00
57948;BME280;43754;56.992;24.292;2022-09-13T07:24:47;101170.22;;;12.61;99.26
57948;BME280;43754;56.992;24.292;2022-09-13T07:27:19;101156.84;;;12.53;99.29
57948;BME280;43754;56.992;24.292;2022-09-13T07:29:53;101156.22;;;12.51;99.22
57948;BME280;43754;56.992;24.292;2022-09-13T07:32:25;101156.31;;;12.57;98.89
57948;BME280;43754;56.992;24.292;2022-09-13T07:34:57;101147.81;;;12.68;98.40
57948;BME280;43754;56.992;24.292;2022-09-13T07:37:29;101145.13;;;12.83;98.28
57948;BME280;43754;56.992;24.292;2022-09-13T07:40:01;101159.25;;;12.85;98.48
57948;BME280;43754;56.992;24.292;2022-09-13T07:42:33;101147.72;;;12.91;97.44
57948;BME280;43754;56.992;24.292;2022-09-13T07:45:08;101145.41;;;13.03;96.29
57948;BME280;43754;56.992;24.292;2022-09-13T07:47:41;101147.75;;;13.06;95.68
57948;BME280;43754;56.992;24.292;2022-09-13T07:50:13;101148.38;;;13.08;94.77
57948;BME280;43754;56.992;24.292;2022-09-13T07:52:45;101136.91;;;13.14;94.29
57948;BME280;43754;56.992;24.292;2022-09-13T07:55:17;101132.72;;;13.26;93.52
57948;BME280;43754;56.992;24.292;2022-09-13T07:57:49;101138.72;;;13.43;93.28
57948;BME280;43754;56.992;24.292;2022-09-13T08:00:23;101135.53;;;13.54;91.92
57948;BME280;43754;56.992;24.292;2022-09-13T08:02:55;101130.47;;;13.65;92.08
57948;BME280;43754;56.992;24.292;2022-09-13T08:05:27;101128.25;;;13.69;91.73
57948;BME280;43754;56.992;24.292;2022-09-13T08:08:00;101127.31;;;13.76;92.35
57948;BME280;43754;56.992;24.292;2022-09-13T08:10:32;101127.31;;;13.76;90.79
57948;BME280;43754;56.992;24.292;2022-09-13T08:13:04;101127.31;;;13.76;91.46
57948;BME280;43754;56.992;24.292;2022-09-13T08:15:38;101128.50;;;13.74;91.22
57948;BME280;43754;56.992;24.292;2022-09-13T08:18:10;101120.69;;;13.79;89.99
57948;BME280;43754;56.992;24.292;2022-09-13T08:20:42;101117.53;;;13.75;90.57
57948;BME280;43754;56.992;24.292;2022-09-13T08:23:14;101112.91;;;13.69;89.46
57948;BME280;43754;56.992;24.292;2022-09-13T08:25:46;101131.31;;;13.66;90.62
57948;BME280;43754;56.992;24.292;2022-09-13T08:28:19;101116.09;;;13.58;89.93
57948;BME280;43754;56.992;24.292;2022-09-13T08:31:04;101122.34;;;13.59;90.04
57948;BME280;43754;56.992;24.292;2022-09-13T08:33:37;101130.56;;;13.72;89.86
57948;BME280;43754;56.992;24.292;2022-09-13T08:36:14;101116.66;;;13.90;89.99
57948;BME280;43754;56.992;24.292;2022-09-13T08:38:48;101113.50;;;13.86;88.37
57948;BME280;43754;56.992;24.292;2022-09-13T08:41:36;101113.56;;;13.71;87.59
57948;BME280;43754;56.992;24.292;2022-09-13T08:44:22;101114.31;;;13.65;87.70
57948;BME280;43754;56.992;24.292;2022-09-13T08:47:01;101102.63;;;13.58;87.54
57948;BME280;43754;56.992;24.292;2022-09-13T08:49:40;101110.09;;;13.56;88.47
57948;BME280;43754;56.992;24.292;2022-09-13T08:52:29;101107.13;;;13.51;89.25
57948;BME280;43754;56.992;24.292;2022-09-13T08:55:18;101097.56;;;13.49;89.40
57948;BME280;43754;56.992;24.292;2022-09-13T08:57:54;101102.75;;;13.50;89.37
57948;BME280;43754;56.992;24.292;2022-09-13T09:00:34;101103.31;;;13.60;89.68
57948;BME280;43754;56.992;24.292;2022-09-13T09:03:20;101106.22;;;13.65;88.03
57948;BME280;43754;56.992;24.292;2022-09-13T09:05:57;101100.09;;;13.71;89.88
57948;BME280;43754;56.992;24.292;2022-09-13T09:08:32;101106.22;;;13.65;88.87
57948;BME280;43754;56.992;24.292;2022-09-13T09:11:16;101096.88;;;13.61;89.49
57948;BME280;43754;56.992;24.292;2022-09-13T09:13:54;101098.16;;;13.65;87.94
57948;BME280;43754;56.992;24.292;2022-09-13T09:16:33;101096.50;;;13.64;88.25
57948;BME280;43754;56.992;24.292;2022-09-13T09:19:20;101092.19;;;13.70;87.94
57948;BME280;43754;56.992;24.292;2022-09-13T09:21:53;101094.19;;;13.82;87.89
57948;BME280;43754;56.992;24.292;2022-09-13T09:24:25;101091.22;;;13.99;88.19
57948;BME280;43754;56.992;24.292;2022-09-13T09:26:57;101088.28;;;14.15;87.16
57948;BME280;43754;56.992;24.292;2022-09-13T09:29:31;101090.31;;;14.13;85.82
57948;BME280;43754;56.992;24.292;2022-09-13T09:32:11;101086.84;;;14.40;84.35
57948;BME280;43754;56.992;24.292;2022-09-13T09:34:56;101081.78;;;14.58;84.29
57948;BME280;43754;56.992;24.292;2022-09-13T09:37:34;101079.34;;;14.70;83.02
57948;BME280;43754;56.992;24.292;2022-09-13T09:40:11;101073.59;;;14.73;82.46
57948;BME280;43754;56.992;24.292;2022-09-13T09:42:46;101070.50;;;14.83;83.01
57948;BME280;43754;56.992;24.292;2022-09-13T09:45:25;101074.00;;;14.77;82.55
57948;BME280;43754;56.992;24.292;2022-09-13T09:47:59;101069.56;;;14.62;83.19
57948;BME280;43754;56.992;24.292;2022-09-13T09:50:37;101058.91;;;14.48;83.66
57948;BME280;43754;56.992;24.292;2022-09-13T09:53:13;101056.13;;;14.41;82.60
57948;BME280;43754;56.992;24.292;2022-09-13T09:55:50;101069.63;;;14.41;82.87
57948;BME280;43754;56.992;24.292;2022-09-13T09:58:36;101057.69;;;14.29;82.57
57948;BME280;43754;56.992;24.292;2022-09-13T10:01:16;101053.19;;;14.36;82.08
57948;BME280;43754;56.992;24.292;2022-09-13T10:03:57;101051.56;;;14.35;81.05
57948;BME280;43754;56.992;24.292;2022-09-13T10:06:34;101038.19;;;14.27;81.99
57948;BME280;43754;56.992;24.292;2022-09-13T10:09:14;101041.50;;;14.29;82.12
57948;BME280;43754;56.992;24.292;2022-09-13T10:11:49;101036.41;;;14.13;83.08
57948;BME280;43754;56.992;24.292;2022-09-13T10:14:38;101032.97;;;13.98;82.92
57948;BME280;43754;56.992;24.292;2022-09-13T10:17:15;101031.63;;;13.87;83.81
57948;BME280;43754;56.992;24.292;2022-09-13T10:19:51;101030.69;;;13.73;84.95
57948;BME280;43754;56.992;24.292;2022-09-13T10:22:26;101033.06;;;13.62;85.20
57948;BME280;43754;56.992;24.292;2022-09-13T10:25:13;101035.03;;;13.53;86.94
57948;BME280;43754;56.992;24.292;2022-09-13T10:27:48;101034.81;;;13.48;86.65
57948;BME280;43754;56.992;24.292;2022-09-13T10:30:31;101022.81;;;13.51;87.67
57948;BME280;43754;56.992;24.292;2022-09-13T10:33:07;101028.13;;;13.65;86.43
57948;BME280;43754;56.992;24.292;2022-09-13T10:35:53;101026.59;;;13.77;86.40
57948;BME280;43754;56.992;24.292;2022-09-13T10:38:31;101022.78;;;13.93;85.81
57948;BME280;43754;56.992;24.292;2022-09-13T10:41:06;101022.91;;;14.06;85.28
57948;BME280;43754;56.992;24.292;2022-09-13T10:43:39;101021.19;;;14.26;83.72
57948;BME280;43754;56.992;24.292;2022-09-13T10:46:20;101013.88;;;14.48;81.70
57948;BME280;43754;56.992;24.292;2022-09-13T10:48:53;101009.41;;;14.68;82.26
57948;BME280;43754;56.992;24.292;2022-09-13T10:51:32;101000.72;;;14.73;80.23
57948;BME280;43754;56.992;24.292;2022-09-13T10:54:15;101004.47;;;14.79;80.42
57948;BME280;43754;56.992;24.292;2022-09-13T10:56:49;100990.16;;;14.78;80.38
57948;BME280;43754;56.992;24.292;2022-09-13T10:59:23;100986.66;;;14.91;79.71
57948;BME280;43754;56.992;24.292;2022-09-13T11:02:22;100979.03;;;15.07;76.70
57948;BME280;43754;56.992;24.292;2022-09-13T11:05:12;100982.38;;;15.09;77.06
57948;BME280;43754;56.992;24.292;2022-09-13T11:08:17;100980.06;;;15.00;77.38
57948;BME280;43754;56.992;24.292;2022-09-13T11:11:00;100971.34;;;14.98;77.10
57948;BME280;43754;56.992;24.292;2022-09-13T11:13:49;100966.97;;;15.03;76.59
57948;BME280;43754;56.992;24.292;2022-09-13T11:16:40;100964.69;;;15.00;77.73
57948;BME280;43754;56.992;24.292;2022-09-13T11:19:35;100967.25;;;15.15;77.62
57948;BME280;43754;56.992;24.292;2022-09-13T11:22:26;100966.84;;;15.31;76.97
57948;BME280;43754;56.992;24.292;2022-09-13T11:25:09;100951.47;;;15.45;76.25
57948;BME280;43754;56.992;24.292;2022-09-13T11:27:50;100950.47;;;15.39;75.57
57948;BME280;43754;56.992;24.292;2022-09-13T11:30:27;100949.63;;;15.39;76.44
57948;BME280;43754;56.992;24.292;2022-09-13T11:33:21;100956.66;;;15.33;75.85
57948;BME280;43754;56.992;24.292;2022-09-13T11:36:11;100945.88;;;15.40;76.48
57948;BME280;43754;56.992;24.292;2022-09-13T11:38:54;100938.19;;;15.43;77.15
57948;BME280;43754;56.992;24.292;2022-09-13T11:41:37;100927.63;;;15.61;75.38
57948;BME280;43754;56.992;24.292;2022-09-13T11:44:27;100930.75;;;15.72;76.14
57948;BME280;43754;56.992;24.292;2022-09-13T11:47:10;100933.03;;;15.68;75.15
57948;BME280;43754;56.992;24.292;2022-09-13T11:50:00;100925.97;;;15.54;75.29
57948;BME280;43754;56.992;24.292;2022-09-13T11:52:46;100925.13;;;15.40;75.73
57948;BME280;43754;56.992;24.292;2022-09-13T11:55:25;100924.47;;;15.38;76.42
57948;BME280;43754;56.992;24.292;2022-09-13T11:58:00;100918.84;;;15.33;76.49
57948;BME280;43754;56.992;24.292;2022-09-13T12:00:41;100919.69;;;15.27;76.80
57948;BME280;43754;56.992;24.292;2022-09-13T12:03:17;100922.78;;;15.24;78.30
57948;BME280;43754;56.992;24.292;2022-09-13T12:05:57;100920.94;;;15.18;77.75
57948;BME280;43754;56.992;24.292;2022-09-13T12:08:34;100913.03;;;15.10;78.67
57948;BME280;43754;56.992;24.292;2022-09-13T12:11:10;100911.31;;;14.96;78.97
57948;BME280;43754;56.992;24.292;2022-09-13T12:13:49;100919.78;;;14.80;79.03
57948;BME280;43754;56.992;24.292;2022-09-13T12:16:25;100911.63;;;14.60;80.42
57948;BME280;43754;56.992;24.292;2022-09-13T12:19:10;100907.94;;;14.67;80.36
57948;BME280;43754;56.992;24.292;2022-09-13T12:21:46;100906.50;;;14.78;79.61
57948;BME280;43754;56.992;24.292;2022-09-13T12:24:27;100895.97;;;15.03;79.38
57948;BME280;43754;56.992;24.292;2022-09-13T12:27:05;100890.81;;;15.14;78.19
57948;BME280;43754;56.992;24.292;2022-09-13T12:29:45;100889.56;;;15.30;77.12
57948;BME280;43754;56.992;24.292;2022-09-13T12:32:21;100889.78;;;15.35;76.69
57948;BME280;43754;56.992;24.292;2022-09-13T12:34:57;100891.03;;;15.26;77.13
57948;BME280;43754;56.992;24.292;2022-09-13T12:37:50;100891.03;;;15.26;77.75
57948;BME280;43754;56.992;24.292;2022-09-13T12:40:36;100884.34;;;15.15;78.05
57948;BME280;43754;56.992;24.292;2022-09-13T12:43:21;100887.88;;;15.16;79.46
57948;BME280;43754;56.992;24.292;2022-09-13T12:46:31;100876.44;;;15.07;79.10
57948;BME280;43754;56.992;24.292;2022-09-13T12:49:24;100873.94;;;14.93;79.82
57948;BME280;43754;56.992;24.292;2022-09-13T12:52:20;100871.63;;;14.83;79.96
57948;BME280;43754;56.992;24.292;2022-09-13T12:55:13;100876.63;;;14.73;81.09
57948;BME280;43754;56.992;24.292;2022-09-13T12:58:35;100857.47;;;14.61;81.42
57948;BME280;43754;56.992;24.292;2022-09-13T13:01:14;100865.34;;;14.56;82.39
57948;BME280;43754;56.992;24.292;2022-09-13T13:03:52;100865.72;;;14.47;83.11
57948;BME280;43754;56.992;24.292;2022-09-13T13:06:31;100872.38;;;14.51;83.38
57948;BME280;43754;56.992;24.292;2022-09-13T13:09:16;100869.09;;;14.55;84.60
57948;BME280;43754;56.992;24.292;2022-09-13T13:11:59;100865.13;;;14.58;83.99
57948;BME280;43754;56.992;24.292;2022-09-13T13:14:49;100860.34;;;14.53;84.17
57948;BME280;43754;56.992;24.292;2022-09-13T13:17:38;100859.69;;;14.45;84.95
57948;BME280;43754;56.992;24.292;2022-09-13T13:20:46;100855.47;;;14.29;85.77
57948;BME280;43754;56.992;24.292;2022-09-13T13:23:27;100852.69;;;14.09;87.22
57948;BME280;43754;56.992;24.292;2022-09-13T13:26:07;100850.94;;;13.95;87.46
57948;BME280;43754;56.992;24.292;2022-09-13T13:29:04;100845.72;;;13.87;87.38
57948;BME280;43754;56.992;24.292;2022-09-13T13:31:44;100848.88;;;13.97;87.70
57948;BME280;43754;56.992;24.292;2022-09-13T13:34:37;100842.31;;;14.06;87.57
57948;BME280;43754;56.992;24.292;2022-09-13T13:37:29;100838.56;;;14.07;87.15
57948;BME280;43754;56.992;24.292;2022-09-13T13:40:18;100829.28;;;14.16;87.21
57948;BME280;43754;56.992;24.292;2022-09-13T13:43:27;100829.94;;;14.25;86.87
57948;BME280;43754;56.992;24.292;2022-09-13T13:46:23;100822.69;;;14.32;86.10